TimeEST,TemperatureF,Dew PointF,Humidity,Sea Level PressureIn,VisibilityMPH,Wind Direction,Wind SpeedMPH,Gust SpeedMPH,PrecipitationIn,Events,Conditions,WindDirDegrees,DateUTC
12:08 AM,39.2,35.6,87,29.97,10.0,Variable,5.8,-,0.00,Rain,Light Rain,0,2012-12-20 05:08:00
12:35 AM,39.2,33.8,81,29.98,10.0,Variable,6.9,-,0.00,Rain,Light Rain,0,2012-12-20 05:35:00
12:52 AM,39.9,33.1,77,30.00,10.0,North,6.9,-,0.00,,Mostly Cloudy,350,2012-12-20 05:52:00
1:25 AM,39.2,33.8,81,30.00,10.0,Variable,4.6,-,0.00,Rain,Light Rain,0,2012-12-20 06:25:00
1:42 AM,39.2,33.8,81,30.01,10.0,Variable,5.8,-,0.00,,Scattered Clouds,0,2012-12-20 06:42:00
2:10 AM,39.2,33.8,81,30.02,10.0,NNW,6.9,-,0.01,Rain,Light Rain,340,2012-12-20 07:10:00
2:40 AM,39.2,33.8,81,30.03,10.0,Variable,5.8,-,0.01,,Scattered Clouds,0,2012-12-20 07:40:00
2:52 AM,39.0,33.1,79,30.05,10.0,Variable,5.8,-,0.01,,Partly Cloudy,0,2012-12-20 07:52:00
3:29 AM,39.2,33.8,81,30.05,10.0,NNW,9.2,18.4,0.00,,Mostly Cloudy,340,2012-12-20 08:29:00
3:45 AM,39.2,33.8,81,30.05,10.0,Variable,3.5,-,0.00,,Scattered Clouds,0,2012-12-20 08:45:00
3:52 AM,39.0,33.1,79,30.06,10.0,Variable,5.8,-,0.00,Rain,Light Rain,0,2012-12-20 08:52:00
4:10 AM,39.2,33.8,81,30.06,10.0,Variable,3.5,-,0.00,Rain,Light Rain,0,2012-12-20 09:10:00
4:17 AM,39.2,33.8,81,30.06,10.0,Variable,4.6,-,0.00,,Mostly Cloudy,0,2012-12-20 09:17:00
5:52 AM,39.0,32.0,76,30.10,10.0,North,3.5,-,0.00,,Clear,10,2012-12-20 10:52:00
6:52 AM,39.0,30.9,73,30.12,10.0,Variable,4.6,-,0.00,,Partly Cloudy,0,2012-12-20 11:52:00
7:29 AM,39.2,30.2,70,30.12,10.0,Variable,4.6,-,N/A,,Mostly Cloudy,0,2012-12-20 12:29:00
7:52 AM,39.9,30.9,70,30.14,10.0,North,6.9,-,N/A,,Mostly Cloudy,350,2012-12-20 12:52:00
8:45 AM,39.2,33.8,81,30.16,8.0,Variable,3.5,19.6,0.00,Rain,Light Rain,0,2012-12-20 13:45:00
8:52 AM,39.9,34.0,79,30.17,10.0,Variable,3.5,-,0.00,,Mostly Cloudy,0,2012-12-20 13:52:00
9:52 AM,42.1,33.1,70,30.18,10.0,Variable,5.8,-,N/A,,Scattered Clouds,0,2012-12-20 14:52:00
10:37 AM,42.8,33.8,70,30.17,10.0,Variable,5.8,-,N/A,,Mostly Cloudy,0,2012-12-20 15:37:00
10:52 AM,43.0,33.1,68,30.18,10.0,NNW,6.9,-,N/A,,Overcast,340,2012-12-20 15:52:00
11:10 AM,-9999,-9999,N/A,30.17,10.0,Variable,4.6,-,N/A,,Overcast,0,2012-12-20 16:10:00
11:52 AM,-9999,-9999,N/A,30.16,10.0,Variable,4.6,-,N/A,,Overcast,0,2012-12-20 16:52:00
12:05 PM,-9999,-9999,N/A,30.16,10.0,Variable,6.9,-,N/A,,Mostly Cloudy,0,2012-12-20 17:05:00
12:21 PM,42.8,32.0,66,30.16,-9999.0,Variable,6.9,-,N/A,,Mostly Cloudy,0,2012-12-20 17:21:00
12:52 PM,42.1,33.1,70,30.16,10.0,NNE,8.1,-,N/A,,Overcast,30,2012-12-20 17:52:00
1:52 PM,41.0,33.1,73,30.15,10.0,Variable,4.6,-,N/A,,Overcast,0,2012-12-20 18:52:00
2:39 PM,41.0,33.8,76,30.14,10.0,NNE,6.9,-,N/A,,Overcast,20,2012-12-20 19:39:00
2:52 PM,39.9,34.0,79,30.15,7.0,NNE,5.8,-,0.00,Rain,Light Rain,30,2012-12-20 19:52:00
3:41 PM,39.2,33.8,81,30.14,10.0,Calm,Calm,-,0.00,,Overcast,0,2012-12-20 20:41:00
3:52 PM,39.0,34.0,82,30.15,10.0,Calm,Calm,-,0.00,,Mostly Cloudy,0,2012-12-20 20:52:00
4:41 PM,39.2,33.8,81,30.14,10.0,Calm,Calm,-,0.00,,Mostly Cloudy,0,2012-12-20 21:41:00
4:48 PM,37.4,33.8,87,30.15,10.0,Calm,Calm,-,0.00,,Mostly Cloudy,0,2012-12-20 21:48:00
4:52 PM,37.9,34.0,86,30.16,10.0,North,3.5,-,0.00,,Overcast,350,2012-12-20 21:52:00
5:52 PM,37.9,35.1,89,30.16,10.0,Calm,Calm,-,N/A,,Overcast,0,2012-12-20 22:52:00
6:08 PM,37.4,35.6,93,30.14,10.0,Calm,Calm,-,N/A,,Overcast,0,2012-12-20 23:08:00
6:52 PM,39.0,34.0,82,30.14,10.0,ENE,3.5,-,N/A,,Mostly Cloudy,60,2012-12-20 23:52:00
7:42 PM,39.2,33.8,81,30.13,10.0,ENE,5.8,-,N/A,,Scattered Clouds,70,2012-12-21 00:42:00
7:52 PM,39.9,34.0,79,30.13,10.0,East,5.8,-,N/A,,Scattered Clouds,80,2012-12-21 00:52:00
8:32 PM,39.2,35.6,87,30.13,10.0,Calm,Calm,-,N/A,,Mostly Cloudy,0,2012-12-21 01:32:00
8:52 PM,39.9,35.1,83,30.12,10.0,East,4.6,-,N/A,,Overcast,80,2012-12-21 01:52:00
9:52 PM,41.0,36.0,82,30.08,10.0,East,6.9,-,N/A,,Overcast,90,2012-12-21 02:52:00
10:52 PM,42.1,37.0,82,30.09,10.0,SSE,5.8,-,N/A,,Overcast,160,2012-12-21 03:52:00
11:52 PM,42.1,37.0,82,30.05,9.0,SSE,6.9,-,0.00,,Overcast,160,2012-12-21 04:52:00